BAW221 EHAM-EGLL
Flight info
| Callsign | BAW221 |
|---|---|
| Flight time | N/A |
| Altitude | 24000 |
| Route | IDRID L980 LOGAN LOGA2H |
| Aircraft | A319/M-SDE3FGHIRWY/LB1 |
Departure
| Time | 2026-04-28 14:43 |
|---|---|
| Airport | Amsterdam Airport Schiphol (EHAM) |
Arrival
| Time | N/A |
|---|---|
| Airport | London Heathrow Airport (EGLL) |
| Time | Latitude | Longitude | Altitude | Speed | Heading |
|---|---|---|---|---|---|
| 2026-04-28 14:18 | 52.30375 | 4.76393 | 0 ft | 0 kts | 238° |
| 2026-04-28 14:30 | 52.30384 | 4.76417 | 0 ft | 3 kts | 238° |
| 2026-04-28 14:30 | 52.30400 | 4.76449 | 0 ft | 3 kts | 211° |
| 2026-04-28 14:30 | 52.30425 | 4.76451 | 0 ft | 3 kts | 157° |
| 2026-04-28 14:30 | 52.30430 | 4.76446 | 0 ft | 0 kts | 145° |
| 2026-04-28 14:33 | 52.30427 | 4.76450 | 0 ft | 1 kts | 145° |
| 2026-04-28 14:33 | 52.30404 | 4.76473 | 0 ft | 8 kts | 149° |
| 2026-04-28 14:33 | 52.30335 | 4.76534 | 0 ft | 13 kts | 161° |
| 2026-04-28 14:34 | 52.30164 | 4.76172 | 0 ft | 27 kts | 235° |
| 2026-04-28 14:34 | 52.30054 | 4.75890 | 0 ft | 31 kts | 242° |
| 2026-04-28 14:34 | 52.29939 | 4.75589 | 0 ft | 31 kts | 236° |
| 2026-04-28 14:35 | 52.29843 | 4.75337 | 0 ft | 22 kts | 244° |
| 2026-04-28 14:35 | 52.29884 | 4.75118 | 0 ft | 21 kts | 310° |
| 2026-04-28 14:35 | 52.29981 | 4.74938 | 0 ft | 20 kts | 311° |
| 2026-04-28 14:35 | 52.30078 | 4.74753 | 0 ft | 22 kts | 312° |
| 2026-04-28 14:36 | 52.30184 | 4.74556 | 0 ft | 23 kts | 311° |
| 2026-04-28 14:36 | 52.30298 | 4.74349 | 0 ft | 25 kts | 311° |
| 2026-04-28 14:36 | 52.30442 | 4.74193 | 0 ft | 26 kts | 1° |
| 2026-04-28 14:36 | 52.30623 | 4.74213 | 0 ft | 26 kts | 354° |
| 2026-04-28 14:37 | 52.30808 | 4.74219 | 0 ft | 26 kts | 5° |
| 2026-04-28 14:37 | 52.30993 | 4.74244 | 0 ft | 27 kts | 2° |
| 2026-04-28 14:37 | 52.31189 | 4.74262 | 0 ft | 28 kts | 2° |
| 2026-04-28 14:37 | 52.31377 | 4.74310 | 0 ft | 27 kts | 45° |
| 2026-04-28 14:38 | 52.31399 | 4.74596 | 0 ft | 24 kts | 73° |
| 2026-04-28 14:38 | 52.31488 | 4.74669 | 0 ft | 0 kts | 353° |
| 2026-04-28 14:38 | 52.31488 | 4.74668 | 0 ft | 0 kts | 353° |
| 2026-04-28 14:38 | 52.31490 | 4.74668 | 0 ft | 0 kts | 353° |
| 2026-04-28 14:39 | 52.31498 | 4.74667 | 0 ft | 4 kts | 353° |
| 2026-04-28 14:39 | 52.31548 | 4.74660 | 0 ft | 7 kts | 358° |
| 2026-04-28 14:39 | 52.31562 | 4.74659 | 0 ft | 1 kts | 359° |
| 2026-04-28 14:39 | 52.31564 | 4.74659 | 0 ft | 0 kts | 359° |
| 2026-04-28 14:40 | 52.31570 | 4.74658 | 0 ft | 3 kts | 359° |
| 2026-04-28 14:40 | 52.31644 | 4.74677 | 0 ft | 16 kts | 33° |
| 2026-04-28 14:41 | 52.31667 | 4.74748 | 0 ft | 0 kts | 85° |
| 2026-04-28 14:41 | 52.31667 | 4.74753 | 0 ft | 0 kts | 85° |
| 2026-04-28 14:42 | 52.31669 | 4.74798 | 0 ft | 19 kts | 86° |
| 2026-04-28 14:42 | 52.31694 | 4.75461 | 0 ft | 96 kts | 86° |
| 2026-04-28 14:42 | 52.31739 | 4.76882 | 122 ft | 143 kts | 85° |
| 2026-04-28 14:43 | 52.31790 | 4.78508 | 781 ft | 147 kts | 85° |
| 2026-04-28 14:43 | 52.31505 | 4.80051 | 1568 ft | 155 kts | 129° |
| 2026-04-28 14:43 | 52.30450 | 4.80701 | 2202 ft | 184 kts | 170° |
| 2026-04-28 14:43 | 52.29118 | 4.80585 | 2774 ft | 200 kts | 177° |
| 2026-04-28 14:44 | 52.27685 | 4.80394 | 3287 ft | 215 kts | 176° |
| 2026-04-28 14:44 | 52.26149 | 4.80035 | 3766 ft | 238 kts | 192° |
| 2026-04-28 14:44 | 52.24602 | 4.78716 | 4191 ft | 266 kts | 211° |
| 2026-04-28 14:44 | 52.23067 | 4.76918 | 4739 ft | 283 kts | 213° |
| 2026-04-28 14:45 | 52.21587 | 4.74743 | 5411 ft | 295 kts | 233° |
| 2026-04-28 14:45 | 52.20737 | 4.71743 | 6384 ft | 295 kts | 251° |
| 2026-04-28 14:45 | 52.20154 | 4.68582 | 7348 ft | 294 kts | 253° |
| 2026-04-28 14:45 | 52.19568 | 4.65387 | 8222 ft | 297 kts | 252° |
| 2026-04-28 14:46 | 52.18944 | 4.62219 | 9076 ft | 300 kts | 251° |
| 2026-04-28 14:46 | 52.18269 | 4.58980 | 9851 ft | 304 kts | 250° |
| 2026-04-28 14:46 | 52.17571 | 4.55772 | 10681 ft | 306 kts | 249° |
| 2026-04-28 14:46 | 52.16826 | 4.52452 | 11295 ft | 320 kts | 249° |
| 2026-04-28 14:47 | 52.16035 | 4.48983 | 11867 ft | 332 kts | 249° |
| 2026-04-28 14:47 | 52.15231 | 4.45481 | 12716 ft | 335 kts | 249° |
| 2026-04-28 14:47 | 52.14419 | 4.41946 | 13557 ft | 336 kts | 248° |
| 2026-04-28 14:47 | 52.13604 | 4.38403 | 14325 ft | 340 kts | 249° |
| 2026-04-28 14:48 | 52.12774 | 4.34810 | 15029 ft | 344 kts | 248° |
| 2026-04-28 14:48 | 52.11927 | 4.31149 | 15796 ft | 348 kts | 248° |
| 2026-04-28 14:48 | 52.11073 | 4.27462 | 16444 ft | 353 kts | 248° |
| 2026-04-28 14:48 | 52.10209 | 4.23729 | 17126 ft | 358 kts | 248° |
| 2026-04-28 14:49 | 52.09330 | 4.19923 | 17808 ft | 363 kts | 248° |
| 2026-04-28 14:49 | 52.08440 | 4.16091 | 18461 ft | 366 kts | 249° |
| 2026-04-28 14:49 | 52.07536 | 4.12202 | 19124 ft | 370 kts | 249° |
| 2026-04-28 14:49 | 52.06633 | 4.08314 | 19772 ft | 374 kts | 249° |
| 2026-04-28 14:50 | 52.05717 | 4.04374 | 20345 ft | 377 kts | 248° |
| 2026-04-28 14:50 | 52.04777 | 4.00359 | 20934 ft | 382 kts | 248° |
| 2026-04-28 14:50 | 52.03839 | 3.96360 | 21525 ft | 386 kts | 248° |
| 2026-04-28 14:50 | 52.02879 | 3.92276 | 22104 ft | 390 kts | 248° |
| 2026-04-28 14:51 | 52.01900 | 3.88126 | 22672 ft | 394 kts | 248° |
| 2026-04-28 14:51 | 52.00923 | 3.83992 | 23250 ft | 398 kts | 248° |
| 2026-04-28 14:51 | 51.99929 | 3.79794 | 23805 ft | 401 kts | 248° |
| 2026-04-28 14:51 | 51.98934 | 3.75595 | 24167 ft | 404 kts | 248° |
| 2026-04-28 14:52 | 51.97924 | 3.71335 | 24218 ft | 404 kts | 248° |
| 2026-04-28 14:52 | 51.96926 | 3.67141 | 24221 ft | 404 kts | 248° |
| 2026-04-28 14:52 | 51.95907 | 3.62866 | 24224 ft | 404 kts | 248° |
| 2026-04-28 14:52 | 51.94897 | 3.58640 | 24227 ft | 404 kts | 248° |
| 2026-04-28 14:53 | 51.93892 | 3.54435 | 24227 ft | 404 kts | 248° |
| 2026-04-28 14:53 | 51.92870 | 3.50170 | 24229 ft | 404 kts | 248° |
| 2026-04-28 14:53 | 51.91852 | 3.45936 | 24234 ft | 406 kts | 248° |
| 2026-04-28 14:53 | 51.90831 | 3.41687 | 24234 ft | 405 kts | 248° |
| 2026-04-28 14:54 | 51.89808 | 3.37440 | 24232 ft | 406 kts | 248° |
| 2026-04-28 14:54 | 51.88786 | 3.33209 | 24227 ft | 405 kts | 247° |
| 2026-04-28 14:54 | 51.87761 | 3.28981 | 24233 ft | 405 kts | 247° |
| 2026-04-28 14:54 | 51.86740 | 3.24768 | 24232 ft | 406 kts | 247° |
| 2026-04-28 14:55 | 51.85744 | 3.20536 | 24226 ft | 406 kts | 250° |
| 2026-04-28 14:55 | 51.84975 | 3.16153 | 24227 ft | 407 kts | 256° |
| 2026-04-28 14:55 | 51.84498 | 3.11627 | 24233 ft | 409 kts | 263° |
| 2026-04-28 14:55 | 51.84191 | 3.07081 | 24235 ft | 412 kts | 264° |
| 2026-04-28 14:56 | 51.83910 | 3.02413 | 24231 ft | 429 kts | 264° |
| 2026-04-28 14:56 | 51.83611 | 2.97532 | 24227 ft | 445 kts | 263° |
| 2026-04-28 14:56 | 51.83290 | 2.92500 | 24224 ft | 459 kts | 263° |
| 2026-04-28 14:56 | 51.82954 | 2.87357 | 24223 ft | 465 kts | 263° |
| 2026-04-28 14:57 | 51.82607 | 2.82129 | 24221 ft | 466 kts | 263° |
| 2026-04-28 14:57 | 51.82378 | 2.78696 | 24224 ft | 466 kts | 263° |
| 2026-04-28 14:57 | 51.81909 | 2.71762 | 24228 ft | 467 kts | 263° |
| 2026-04-28 14:57 | 51.81558 | 2.66582 | 24227 ft | 467 kts | 263° |
| 2026-04-28 14:58 | 51.81201 | 2.61376 | 24229 ft | 468 kts | 263° |
| 2026-04-28 14:58 | 51.80840 | 2.56170 | 24227 ft | 468 kts | 263° |
| 2026-04-28 14:58 | 51.80474 | 2.50942 | 24231 ft | 468 kts | 263° |
| 2026-04-28 14:58 | 51.80114 | 2.45789 | 24230 ft | 468 kts | 263° |
| 2026-04-28 14:59 | 51.79745 | 2.40550 | 24230 ft | 469 kts | 263° |
| 2026-04-28 14:59 | 51.79373 | 2.35309 | 24235 ft | 470 kts | 263° |
| 2026-04-28 14:59 | 51.79004 | 2.30092 | 24234 ft | 470 kts | 262° |
| 2026-04-28 14:59 | 51.78630 | 2.24880 | 24235 ft | 470 kts | 262° |
| 2026-04-28 15:00 | 51.78270 | 2.19664 | 24236 ft | 470 kts | 263° |
| 2026-04-28 15:00 | 51.77953 | 2.14387 | 24236 ft | 471 kts | 264° |
| 2026-04-28 15:00 | 51.77654 | 2.09205 | 24242 ft | 472 kts | 264° |
| 2026-04-28 15:00 | 51.77350 | 2.03908 | 24245 ft | 473 kts | 264° |
| 2026-04-28 15:01 | 51.77043 | 1.98627 | 24246 ft | 474 kts | 264° |
| 2026-04-28 15:01 | 51.76732 | 1.93360 | 24243 ft | 474 kts | 264° |
| 2026-04-28 15:01 | 51.76414 | 1.88100 | 24249 ft | 475 kts | 264° |
| 2026-04-28 15:01 | 51.76093 | 1.82826 | 24249 ft | 476 kts | 264° |
| 2026-04-28 15:02 | 51.75765 | 1.77466 | 24250 ft | 476 kts | 264° |
| 2026-04-28 15:02 | 51.75443 | 1.72229 | 24256 ft | 476 kts | 264° |
| 2026-04-28 15:02 | 51.75112 | 1.66911 | 24249 ft | 475 kts | 264° |
| 2026-04-28 15:02 | 51.74781 | 1.61636 | 24230 ft | 476 kts | 264° |
| 2026-04-28 15:03 | 51.74448 | 1.56354 | 23960 ft | 468 kts | 264° |
| 2026-04-28 15:03 | 51.74121 | 1.51239 | 23486 ft | 460 kts | 264° |
| 2026-04-28 15:03 | 51.73795 | 1.46145 | 23054 ft | 451 kts | 264° |
| 2026-04-28 15:03 | 51.73475 | 1.41205 | 22627 ft | 443 kts | 264° |
| 2026-04-28 15:04 | 51.73157 | 1.36317 | 22154 ft | 436 kts | 264° |
| 2026-04-28 15:04 | 51.72845 | 1.31509 | 21690 ft | 430 kts | 263° |
| 2026-04-28 15:04 | 51.72534 | 1.26771 | 21244 ft | 424 kts | 263° |
| 2026-04-28 15:04 | 51.72224 | 1.22120 | 20804 ft | 418 kts | 263° |
| 2026-04-28 15:05 | 51.71917 | 1.17488 | 20365 ft | 412 kts | 263° |
| 2026-04-28 15:05 | 51.71609 | 1.12911 | 19867 ft | 408 kts | 263° |
| 2026-04-28 15:05 | 51.71306 | 1.08415 | 19372 ft | 405 kts | 263° |
| 2026-04-28 15:05 | 51.71001 | 1.03933 | 18896 ft | 401 kts | 263° |
| 2026-04-28 15:06 | 51.70699 | 0.99540 | 18425 ft | 397 kts | 262° |
| 2026-04-28 15:06 | 51.70398 | 0.95160 | 17973 ft | 394 kts | 262° |
| 2026-04-28 15:06 | 51.70094 | 0.90769 | 17479 ft | 391 kts | 263° |
| 2026-04-28 15:06 | 51.69793 | 0.86455 | 16872 ft | 392 kts | 263° |
| 2026-04-28 15:07 | 51.69488 | 0.82085 | 16079 ft | 398 kts | 263° |
| 2026-04-28 15:07 | 51.69179 | 0.77700 | 15336 ft | 395 kts | 263° |
| 2026-04-28 15:07 | 51.68869 | 0.73325 | 14567 ft | 389 kts | 263° |
| 2026-04-28 15:07 | 51.68567 | 0.69084 | 13788 ft | 383 kts | 263° |
| 2026-04-28 15:08 | 51.68264 | 0.64857 | 13018 ft | 375 kts | 263° |
| 2026-04-28 15:08 | 51.67967 | 0.60750 | 12254 ft | 369 kts | 263° |
| 2026-04-28 15:08 | 51.67679 | 0.56746 | 11500 ft | 362 kts | 263° |
| 2026-04-28 15:08 | 51.67386 | 0.52780 | 10750 ft | 357 kts | 263° |
| 2026-04-28 15:09 | 51.67102 | 0.48879 | 10202 ft | 344 kts | 264° |
| 2026-04-28 15:09 | 51.66835 | 0.45164 | 9838 ft | 329 kts | 264° |
| 2026-04-28 15:09 | 51.66569 | 0.41561 | 9468 ft | 317 kts | 264° |
| 2026-04-28 15:09 | 51.66401 | 0.39235 | 9194 ft | 310 kts | 264° |
| 2026-04-28 15:10 | 51.66103 | 0.34696 | 8686 ft | 309 kts | 264° |
| 2026-04-28 15:10 | 51.65877 | 0.31239 | 8298 ft | 307 kts | 264° |
| 2026-04-28 15:10 | 51.65654 | 0.27853 | 7937 ft | 307 kts | 264° |
| 2026-04-28 15:10 | 51.65431 | 0.24462 | 7531 ft | 306 kts | 265° |
| 2026-04-28 15:11 | 51.65225 | 0.21077 | 7266 ft | 302 kts | 265° |
| 2026-04-28 15:11 | 51.65022 | 0.17705 | 7258 ft | 305 kts | 265° |
| 2026-04-28 15:11 | 51.64817 | 0.14305 | 7261 ft | 305 kts | 265° |
| 2026-04-28 15:11 | 51.64609 | 0.10926 | 7251 ft | 304 kts | 265° |
| 2026-04-28 15:12 | 51.64407 | 0.07538 | 7245 ft | 304 kts | 265° |
| 2026-04-28 15:12 | 51.64210 | 0.04176 | 7247 ft | 305 kts | 265° |
| 2026-04-28 15:12 | 51.64007 | 0.00757 | 7251 ft | 305 kts | 265° |
| 2026-04-28 15:12 | 51.63807 | -0.02639 | 7253 ft | 305 kts | 265° |
| 2026-04-28 15:13 | 51.63607 | -0.06000 | 7257 ft | 305 kts | 265° |
| 2026-04-28 15:13 | 51.63401 | -0.09412 | 7259 ft | 305 kts | 265° |
| 2026-04-28 15:13 | 51.63202 | -0.12785 | 7252 ft | 305 kts | 265° |
| 2026-04-28 15:13 | 51.63001 | -0.16199 | 7256 ft | 306 kts | 265° |
| 2026-04-28 15:14 | 51.62797 | -0.19620 | 7252 ft | 306 kts | 264° |
| 2026-04-28 15:14 | 51.62589 | -0.23019 | 7255 ft | 306 kts | 265° |
| 2026-04-28 15:14 | 51.62381 | -0.26411 | 7252 ft | 302 kts | 265° |
| 2026-04-28 15:14 | 51.62179 | -0.29658 | 7247 ft | 286 kts | 265° |
| 2026-04-28 15:15 | 51.61990 | -0.32795 | 7252 ft | 284 kts | 265° |
| 2026-04-28 15:15 | 51.61804 | -0.35929 | 7250 ft | 276 kts | 265° |
| 2026-04-28 15:15 | 51.61622 | -0.38978 | 7250 ft | 274 kts | 265° |
| 2026-04-28 15:15 | 51.61441 | -0.41988 | 7254 ft | 273 kts | 265° |
| 2026-04-28 15:16 | 51.61256 | -0.45023 | 7255 ft | 274 kts | 265° |
| 2026-04-28 15:16 | 51.61060 | -0.48096 | 7261 ft | 273 kts | 265° |
| 2026-04-28 15:16 | 51.60862 | -0.51127 | 7255 ft | 273 kts | 265° |
| 2026-04-28 15:16 | 51.60673 | -0.54148 | 7255 ft | 273 kts | 265° |
| 2026-04-28 15:17 | 51.60488 | -0.57154 | 7259 ft | 273 kts | 265° |
| 2026-04-28 15:17 | 51.60292 | -0.60208 | 7260 ft | 273 kts | 265° |
| 2026-04-28 15:17 | 51.60096 | -0.63228 | 7264 ft | 273 kts | 265° |
| 2026-04-28 15:17 | 51.59907 | -0.66252 | 7257 ft | 273 kts | 264° |
| 2026-04-28 15:18 | 51.59708 | -0.69286 | 7260 ft | 274 kts | 264° |
| 2026-04-28 15:18 | 51.59509 | -0.72344 | 7260 ft | 274 kts | 265° |
| 2026-04-28 15:18 | 51.59332 | -0.75372 | 7261 ft | 274 kts | 265° |
| 2026-04-28 15:18 | 51.59158 | -0.78431 | 7264 ft | 275 kts | 265° |
| 2026-04-28 15:19 | 51.58984 | -0.81461 | 7037 ft | 275 kts | 265° |
| 2026-04-28 15:19 | 51.58812 | -0.84519 | 6733 ft | 272 kts | 265° |
| 2026-04-28 15:19 | 51.58642 | -0.87506 | 6439 ft | 271 kts | 265° |
| 2026-04-28 15:19 | 51.58471 | -0.90507 | 6143 ft | 270 kts | 265° |
| 2026-04-28 15:20 | 51.58303 | -0.93526 | 5843 ft | 268 kts | 266° |
| 2026-04-28 15:20 | 51.58129 | -0.96481 | 5549 ft | 267 kts | 266° |
| 2026-04-28 15:20 | 51.57943 | -0.99425 | 5253 ft | 266 kts | 265° |
| 2026-04-28 15:20 | 51.57739 | -1.02383 | 5026 ft | 262 kts | 266° |
| 2026-04-28 15:21 | 51.57531 | -1.05280 | 5009 ft | 264 kts | 266° |
| 2026-04-28 15:21 | 51.57314 | -1.08224 | 5004 ft | 265 kts | 265° |
| 2026-04-28 15:21 | 51.57105 | -1.11151 | 5008 ft | 264 kts | 266° |
| 2026-04-28 15:21 | 51.56894 | -1.14054 | 5012 ft | 265 kts | 263° |
| 2026-04-28 15:22 | 51.56305 | -1.16843 | 4914 ft | 266 kts | 235° |
| 2026-04-28 15:22 | 51.54997 | -1.18853 | 4666 ft | 257 kts | 202° |
| 2026-04-28 15:22 | 51.53330 | -1.19522 | 4419 ft | 244 kts | 170° |
| 2026-04-28 15:22 | 51.51784 | -1.18781 | 4164 ft | 227 kts | 137° |
| 2026-04-28 15:23 | 51.50780 | -1.16994 | 4021 ft | 215 kts | 115° |
| 2026-04-28 15:23 | 51.50039 | -1.14888 | 4014 ft | 215 kts | 111° |
| 2026-04-28 15:23 | 51.49356 | -1.12766 | 4009 ft | 214 kts | 111° |
| 2026-04-28 15:23 | 51.48676 | -1.10639 | 4007 ft | 214 kts | 110° |
| 2026-04-28 15:24 | 51.48002 | -1.08534 | 4008 ft | 215 kts | 110° |
| 2026-04-28 15:24 | 51.47519 | -1.06323 | 4004 ft | 208 kts | 94° |
| 2026-04-28 15:24 | 51.47424 | -1.04029 | 4006 ft | 204 kts | 84° |
| 2026-04-28 15:24 | 51.47510 | -1.01800 | 3996 ft | 196 kts | 82° |
| 2026-04-28 15:25 | 51.47604 | -0.99629 | 3995 ft | 194 kts | 83° |
| 2026-04-28 15:25 | 51.47666 | -0.97461 | 3999 ft | 194 kts | 84° |
| 2026-04-28 15:25 | 51.47707 | -0.95294 | 3996 ft | 192 kts | 85° |
| 2026-04-28 15:25 | 51.47723 | -0.93266 | 3981 ft | 177 kts | 85° |
| 2026-04-28 15:26 | 51.47727 | -0.91412 | 4046 ft | 155 kts | 85° |
| 2026-04-28 15:26 | 51.47726 | -0.89771 | 4023 ft | 143 kts | 85° |
| 2026-04-28 15:26 | 51.47731 | -0.88180 | 4009 ft | 142 kts | 84° |
| 2026-04-28 15:26 | 51.47734 | -0.86608 | 4006 ft | 142 kts | 84° |
| 2026-04-28 15:27 | 51.47736 | -0.85014 | 3997 ft | 142 kts | 85° |
| 2026-04-28 15:27 | 51.47733 | -0.83431 | 3993 ft | 142 kts | 85° |
| 2026-04-28 15:27 | 51.47730 | -0.81870 | 3992 ft | 142 kts | 86° |
| 2026-04-28 15:27 | 51.47723 | -0.80277 | 3888 ft | 143 kts | 84° |
| 2026-04-28 15:28 | 51.47720 | -0.78690 | 3699 ft | 141 kts | 85° |
| 2026-04-28 15:28 | 51.47716 | -0.77111 | 3512 ft | 141 kts | 84° |
| 2026-04-28 15:28 | 51.47712 | -0.75554 | 3327 ft | 141 kts | 84° |
| 2026-04-28 15:28 | 51.47709 | -0.73995 | 3142 ft | 140 kts | 83° |
| 2026-04-28 15:29 | 51.47706 | -0.72426 | 2954 ft | 140 kts | 83° |